createdAt,value
2022-08-09T15:17:46.160Z,9.660758
2022-08-09T15:18:43.357Z,9.660968
2022-08-09T15:19:59.589Z,9.661279
2022-08-09T15:21:55.400Z,9.661303
2022-08-09T15:21:56.202Z,9.661380
2022-08-09T15:22:47.154Z,9.661474
2022-08-09T15:24:03.094Z,9.661472
2022-08-09T15:24:44.293Z,9.661388
2022-08-09T15:25:43.249Z,9.661386
2022-08-09T15:26:45.969Z,9.661631
2022-08-09T15:27:47.871Z,9.661603
2022-08-09T15:28:44.249Z,9.661603
2022-08-09T15:30:58.652Z,9.661141
2022-08-09T15:30:59.435Z,9.660807
2022-08-09T15:31:44.245Z,9.660543
2022-08-09T15:32:43.519Z,9.660444
2022-08-09T15:34:17.349Z,9.660444
2022-08-09T15:34:44.213Z,9.660444
2022-08-09T15:35:44.735Z,9.660444
2022-08-09T15:36:48.200Z,9.660444
2022-08-09T15:37:57.073Z,9.660444
2022-08-09T15:38:44.189Z,9.660444
2022-08-09T15:39:53.495Z,9.660444
2022-08-09T15:40:44.408Z,9.660444
2022-08-09T15:41:47.091Z,9.660444
2022-08-09T15:42:44.195Z,9.660444
2022-08-09T15:43:43.157Z,9.660444
2022-08-09T15:44:43.170Z,9.660444
2022-08-09T15:45:51.915Z,9.660444
2022-08-09T15:46:43.180Z,9.660444
2022-08-09T15:47:52.857Z,9.661461
2022-08-09T15:48:43.136Z,9.661414
2022-08-09T15:50:00.713Z,9.661504
2022-08-09T15:50:44.137Z,9.661530
2022-08-09T15:52:02.058Z,9.661489
2022-08-09T15:52:45.008Z,9.661543
2022-08-09T15:54:05.154Z,9.661587
2022-08-09T15:54:49.382Z,9.661550
2022-08-09T15:56:04.093Z,9.661520
2022-08-09T15:56:43.118Z,9.661589
2022-08-09T15:57:44.304Z,9.661485
2022-08-09T15:58:44.086Z,9.661545
2022-08-09T15:59:48.396Z,9.661527
2022-08-09T16:00:44.142Z,9.661422
2022-08-09T16:01:43.083Z,9.661467
2022-08-09T16:02:43.375Z,9.661534
2022-08-09T16:03:44.061Z,9.661533
2022-08-09T16:04:43.059Z,9.661535
2022-08-09T16:05:53.445Z,9.661516
2022-08-09T16:06:44.525Z,9.661497
2022-08-09T16:07:46.103Z,9.661493
2022-08-09T16:08:44.583Z,9.661505
2022-08-09T16:10:02.165Z,9.661551
2022-08-09T16:10:56.453Z,9.661590
2022-08-09T16:11:48.522Z,9.661567
2022-08-09T16:12:50.612Z,9.661536
2022-08-09T16:14:03.760Z,9.661538
2022-08-09T16:14:44.013Z,9.661542
2022-08-09T16:16:11.626Z,9.661520
2022-08-09T16:16:48.154Z,9.661561
2022-08-09T16:17:46.705Z,9.661570
2022-08-09T16:18:45.167Z,9.661532
2022-08-09T16:19:49.709Z,9.661498
2022-08-09T16:20:44.030Z,9.661442
2022-08-09T16:21:42.983Z,9.661489
2022-08-09T16:22:48.570Z,9.661497
2022-08-09T16:23:48.047Z,9.661511
2022-08-09T16:24:44.053Z,9.661521
2022-08-09T16:25:43.952Z,9.661543
2022-08-09T16:26:42.942Z,9.661519
2022-08-09T16:27:43.931Z,9.661538
2022-08-09T16:28:43.929Z,9.661546
2022-08-09T16:29:50.681Z,9.661531
2022-08-09T16:30:44.559Z,9.661577
2022-08-09T16:32:19.329Z,9.661682
2022-08-09T16:32:49.433Z,9.661649
2022-08-09T16:33:43.933Z,9.661530
2022-08-09T16:34:55.775Z,9.661502
2022-08-09T16:35:55.905Z,9.661462
2022-08-09T16:36:42.891Z,9.661521
2022-08-09T16:37:55.541Z,9.661536
2022-08-09T16:38:43.896Z,9.661562
2022-08-09T16:39:54.803Z,9.661540
2022-08-09T16:40:43.925Z,9.661421
2022-08-09T16:42:03.473Z,9.661431
2022-08-09T16:42:44.910Z,9.661446
2022-08-09T16:43:42.850Z,9.661491
2022-08-09T16:44:42.846Z,9.661510
2022-08-09T16:45:44.242Z,9.661513
2022-08-09T16:46:55.174Z,9.661552
2022-08-09T16:48:40.587Z,9.661506
2022-08-09T16:48:51.003Z,9.661513
2022-08-09T16:50:29.272Z,9.661481
2022-08-09T16:50:59.109Z,9.661501
2022-08-09T16:51:42.829Z,9.661522
2022-08-09T16:52:43.125Z,9.661521
2022-08-09T16:54:02.260Z,9.661469
2022-08-09T16:54:42.795Z,9.661562
2022-08-09T16:56:00.134Z,9.661522
2022-08-09T16:56:49.168Z,9.661393
2022-08-09T16:58:09.295Z,9.661475
2022-08-09T16:58:50.558Z,9.661495
2022-08-09T16:59:43.957Z,9.661513
2022-08-09T17:00:43.833Z,9.661504
2022-08-09T17:01:45.584Z,9.661448
2022-08-09T17:02:46.390Z,9.661455
2022-08-09T17:03:42.739Z,9.661453
2022-08-09T17:04:42.743Z,9.661469
2022-08-09T17:06:02.842Z,9.661493
2022-08-09T17:08:40.585Z,9.661521
2022-08-09T17:08:42.899Z,9.661542
2022-08-09T17:09:01.616Z,9.661539
2022-08-09T17:09:47.047Z,9.661471
2022-08-09T17:10:42.712Z,9.661386
2022-08-09T17:11:42.753Z,9.661507
2022-08-09T17:12:42.771Z,9.661543
2022-08-09T17:13:45.242Z,9.661613
2022-08-09T17:14:47.922Z,9.661504
2022-08-09T17:16:00.405Z,9.661541
2022-08-09T17:16:43.678Z,9.661596
2022-08-09T17:17:50.432Z,9.661542
2022-08-09T17:18:45.271Z,9.661532
2022-08-09T17:20:04.947Z,9.661497
2022-08-09T17:20:50.936Z,9.661454
2022-08-09T17:21:46.615Z,9.661459
2022-08-09T17:22:50.269Z,9.661448
2022-08-09T17:24:20.442Z,9.661496
2022-08-09T17:24:47.728Z,9.661560
2022-08-09T17:25:43.640Z,9.661530
2022-08-09T17:26:42.624Z,9.661547
2022-08-09T17:27:49.490Z,9.661538
2022-08-09T17:28:43.615Z,9.661562
2022-08-09T17:29:45.558Z,9.661523
2022-08-09T17:30:47.784Z,9.661503
2022-08-09T17:31:45.759Z,9.661522
2022-08-09T17:32:44.353Z,9.661522
2022-08-09T17:33:42.592Z,9.661525
2022-08-09T17:35:04.297Z,9.661524
2022-08-09T17:35:43.907Z,9.661511
2022-08-09T17:36:53.154Z,9.661517
2022-08-09T17:38:14.243Z,9.661562
2022-08-09T17:38:43.563Z,9.661488
2022-08-09T17:39:52.822Z,9.661563
2022-08-09T17:40:42.607Z,9.661435
2022-08-09T17:41:42.559Z,9.661565
2022-08-09T17:42:42.694Z,9.661518
2022-08-09T17:43:45.796Z,9.661657
2022-08-09T17:44:48.969Z,9.661629
2022-08-09T17:46:03.863Z,9.661576
2022-08-09T17:46:55.712Z,9.661604
2022-08-09T17:47:48.388Z,9.661671
2022-08-09T17:48:52.169Z,9.661633
2022-08-09T17:49:54.236Z,9.661607
2022-08-09T17:50:55.869Z,9.661661
2022-08-09T17:51:42.694Z,9.661572
2022-08-09T17:52:42.479Z,9.661395
2022-08-09T17:53:48.192Z,9.661524
2022-08-09T17:54:42.467Z,9.661609
2022-08-09T17:55:49.335Z,9.661624
2022-08-09T17:56:43.476Z,9.661263
2022-08-09T17:58:02.555Z,9.661288
2022-08-09T17:58:42.927Z,9.661560
2022-08-09T17:59:42.453Z,9.661529
2022-08-09T18:00:46.620Z,9.661180
2022-08-09T18:02:03.364Z,9.661290
2022-08-09T18:02:43.527Z,9.661473
2022-08-09T18:03:43.456Z,9.661368
2022-08-09T18:04:42.424Z,9.661386
2022-08-09T18:05:43.902Z,9.661077
2022-08-09T18:06:43.120Z,9.661409
2022-08-09T18:07:48.544Z,9.661498
2022-08-09T18:08:44.395Z,9.661551
2022-08-09T18:09:42.390Z,9.661567
2022-08-09T18:10:42.527Z,9.661551
2022-08-09T18:12:05.925Z,9.661580
2022-08-09T18:13:39.270Z,9.661455
2022-08-09T18:14:00.483Z,9.661464
2022-08-09T18:14:49.501Z,9.661413
2022-08-09T18:16:05.433Z,9.661433
2022-08-09T18:16:48.690Z,9.661554
2022-08-09T18:18:03.287Z,9.661539
2022-08-09T18:18:49.346Z,9.661492
2022-08-09T18:20:54.197Z,9.661536
2022-08-09T18:20:54.368Z,9.661505
2022-08-09T18:21:43.308Z,9.661577
2022-08-09T18:22:44.118Z,9.661536
2022-08-09T18:24:11.014Z,9.661511
2022-08-09T18:24:43.348Z,9.661523
2022-08-09T18:25:53.292Z,9.661572
2022-08-09T18:26:46.011Z,9.661528
2022-08-09T18:28:04.105Z,9.661493
2022-08-09T18:30:41.928Z,9.661613
2022-08-09T18:30:42.606Z,9.661573
2022-08-09T18:30:49.683Z,9.661569
2022-08-09T18:31:55.313Z,9.661511
2022-08-09T18:32:43.253Z,9.661427
2022-08-09T18:33:52.976Z,9.661613
2022-08-09T18:34:43.263Z,9.661538
2022-08-09T18:35:58.663Z,9.661547
2022-08-09T18:36:42.234Z,9.661491
2022-08-09T18:37:47.500Z,9.661506
2022-08-09T18:38:42.217Z,9.661497
2022-08-09T18:39:42.271Z,9.661555
2022-08-09T18:40:42.257Z,9.661541
2022-08-09T18:41:52.887Z,9.661489
2022-08-09T18:42:43.935Z,9.661488
2022-08-09T18:43:52.862Z,9.661528
2022-08-09T18:44:43.202Z,9.661557
2022-08-09T18:46:48.487Z,9.661625
2022-08-09T18:46:49.085Z,9.661560
2022-08-09T18:47:43.179Z,9.661605
2022-08-09T18:48:43.163Z,9.661544
2022-08-09T18:49:46.255Z,9.661729
2022-08-09T18:50:42.171Z,9.661676
2022-08-09T18:51:55.413Z,9.661800
2022-08-09T18:52:43.253Z,9.661627
2022-08-09T18:53:59.597Z,9.661599
2022-08-09T18:54:49.673Z,9.661779
2022-08-09T18:55:56.500Z,9.662008
2022-08-09T18:56:43.160Z,9.662108
2022-08-09T18:57:44.549Z,9.662046
2022-08-09T18:58:42.120Z,9.661840
2022-08-09T18:59:49.047Z,9.661779
2022-08-09T19:00:42.112Z,9.661649
2022-08-09T19:01:46.022Z,9.661561
2022-08-09T19:02:42.231Z,9.661590
2022-08-09T19:03:54.570Z,9.661673
2022-08-09T19:04:47.582Z,9.661901
2022-08-09T19:06:02.440Z,9.661938
2022-08-09T19:06:43.519Z,9.661910
2022-08-09T19:07:43.239Z,9.661517
2022-08-09T19:08:43.055Z,9.661906
2022-08-09T19:10:14.121Z,9.661869
2022-08-09T19:10:42.052Z,9.661620
2022-08-09T19:11:42.048Z,9.661831
2022-08-09T19:12:42.045Z,9.661931
2022-08-09T19:13:51.333Z,9.661989
2022-08-09T19:14:43.560Z,9.662023
2022-08-09T19:15:42.041Z,9.662044
2022-08-09T19:16:50.400Z,9.661619
2022-08-09T19:17:54.895Z,9.661611
2022-08-09T19:18:45.491Z,9.661582
2022-08-09T19:19:42.247Z,9.661548
2022-08-09T19:20:42.002Z,9.661477
2022-08-09T19:21:47.675Z,9.661564
2022-08-09T19:22:54.226Z,9.661524
2022-08-09T19:24:35.660Z,9.661545
2022-08-09T19:25:09.651Z,9.661597
2022-08-09T19:26:02.225Z,9.661600
2022-08-09T19:26:42.950Z,9.661588
2022-08-09T19:27:41.948Z,9.661569
2022-08-09T19:28:42.675Z,9.661587
2022-08-09T19:30:22.145Z,9.661602
2022-08-09T19:30:44.328Z,9.661620
2022-08-09T19:31:45.228Z,9.661579
2022-08-09T19:32:41.957Z,9.661620
2022-08-09T19:33:41.936Z,9.661709
2022-08-09T19:34:45.548Z,9.661644
2022-08-09T19:35:57.199Z,9.661584
2022-08-09T19:36:43.733Z,9.661645
2022-08-09T19:37:56.001Z,9.661666
2022-08-09T19:38:42.987Z,9.661627
2022-08-09T19:40:02.701Z,9.661625
2022-08-09T19:40:42.933Z,9.661611
2022-08-09T19:41:42.256Z,9.661605
2022-08-09T19:42:41.868Z,9.661646
2022-08-09T19:44:00.909Z,9.661665
2022-08-09T19:44:42.840Z,9.661626
2022-08-09T19:45:42.229Z,9.661600
2022-08-09T19:46:50.900Z,9.661633
2022-08-09T19:47:43.574Z,9.661590
2022-08-09T19:49:01.608Z,9.661611
2022-08-09T19:50:10.288Z,9.661592
2022-08-09T19:50:51.551Z,9.661560
2022-08-09T19:51:43.559Z,9.661593
2022-08-09T19:52:49.376Z,9.661573
2022-08-09T19:53:45.587Z,9.661568
2022-08-09T19:54:41.811Z,9.661576
2022-08-09T19:56:03.226Z,9.661540
2022-08-09T19:56:44.582Z,9.661523
2022-08-09T19:57:42.858Z,9.661477
2022-08-09T19:58:41.784Z,9.661514
2022-08-09T20:00:05.928Z,9.661569
2022-08-09T20:00:42.762Z,9.661599
2022-08-09T20:01:52.183Z,9.661630
2022-08-09T20:04:17.916Z,9.661468
2022-08-09T20:04:18.548Z,9.661502
2022-08-09T20:04:52.999Z,9.661526
2022-08-09T20:05:46.289Z,9.661571
2022-08-09T20:06:42.204Z,9.661585
2022-08-09T20:07:58.838Z,9.661535
2022-08-09T20:08:42.859Z,9.661530
2022-08-09T20:09:44.335Z,9.661511
2022-08-09T20:10:41.727Z,9.661522
2022-08-09T20:11:45.227Z,9.661516
2022-08-09T20:12:45.954Z,9.661460
2022-08-09T20:13:41.752Z,9.661598
2022-08-09T20:14:43.691Z,9.661537
2022-08-09T20:16:34.296Z,9.661482
2022-08-09T20:16:50.134Z,9.661469
2022-08-09T20:17:48.626Z,9.661426
2022-08-09T20:19:04.020Z,9.661522
2022-08-09T20:19:53.711Z,9.661598
2022-08-09T20:20:41.686Z,9.661367
2022-08-09T20:21:56.645Z,9.661551
2022-08-09T20:22:42.881Z,9.661673
2022-08-09T20:23:41.707Z,9.661534
2022-08-09T20:24:41.652Z,9.661456
2022-08-09T20:25:51.889Z,9.661475
2022-08-09T20:26:41.618Z,9.661425
2022-08-09T20:27:41.771Z,9.661456
2022-08-09T20:28:48.541Z,9.661454
2022-08-09T20:29:42.616Z,9.661383
2022-08-09T20:30:41.610Z,9.661306
2022-08-09T20:32:17.110Z,9.661387
2022-08-09T20:32:41.899Z,9.661294
2022-08-09T20:33:44.099Z,9.661407
2022-08-09T20:34:41.585Z,9.661774
2022-08-09T20:35:41.607Z,9.661361
2022-08-09T20:36:41.589Z,9.661331
2022-08-09T20:38:23.939Z,9.661284
2022-08-09T20:39:29.050Z,9.661195
2022-08-09T20:40:14.938Z,9.661215
2022-08-09T20:40:42.612Z,9.661179
2022-08-09T20:41:41.623Z,9.661216
2022-08-09T20:42:41.519Z,9.661283
2022-08-09T20:43:44.856Z,9.661325
2022-08-09T20:44:41.520Z,9.661332
2022-08-09T20:46:00.452Z,9.661387
2022-08-09T20:46:42.971Z,9.661334
2022-08-09T20:47:48.127Z,9.661286
2022-08-09T20:48:42.041Z,9.661302
2022-08-09T20:49:41.536Z,9.661279
2022-08-09T20:50:47.066Z,9.661314
2022-08-09T20:51:42.554Z,9.661337
2022-08-09T20:52:41.463Z,9.661252
2022-08-09T20:53:41.480Z,9.661341
2022-08-09T20:54:52.761Z,9.661467
2022-08-09T20:55:47.182Z,9.661478
2022-08-09T20:56:41.468Z,9.661431
2022-08-09T20:58:05.216Z,9.661581
2022-08-09T20:59:09.976Z,9.661513
2022-08-09T21:00:19.266Z,9.661500
2022-08-09T21:00:45.220Z,9.661460
2022-08-09T21:01:50.903Z,9.661421
2022-08-09T21:02:42.556Z,9.661445
2022-08-09T21:05:49.101Z,9.661460
2022-08-09T21:05:50.886Z,9.661449
2022-08-09T21:05:55.221Z,9.661502
2022-08-09T21:06:42.702Z,9.661386
2022-08-09T21:07:44.445Z,9.661381
2022-08-09T21:08:41.499Z,9.661425
2022-08-09T21:09:45.988Z,9.661476
2022-08-09T21:10:42.996Z,9.661492
2022-08-09T21:12:46.028Z,9.661464
2022-08-09T21:13:59.100Z,9.661468
2022-08-09T21:14:42.346Z,9.661535
2022-08-09T21:15:54.329Z,9.661482
2022-08-09T21:16:42.310Z,9.661572
2022-08-09T21:18:23.977Z,9.661563
2022-08-09T21:20:04.192Z,9.661540
2022-08-09T21:20:17.206Z,9.661563
2022-08-09T21:20:42.334Z,9.661581
2022-08-09T21:21:46.207Z,9.661552
2022-08-09T21:22:41.282Z,9.661550
2022-08-09T21:23:50.995Z,9.661473
2022-08-09T21:24:42.310Z,9.661501
2022-08-09T21:25:44.430Z,9.661490
2022-08-09T21:26:42.265Z,9.661444
2022-08-09T21:27:52.168Z,9.661460
2022-08-09T21:28:55.933Z,9.661464
2022-08-09T21:29:49.603Z,9.661480
2022-08-09T21:30:41.289Z,9.661433
2022-08-09T21:31:48.748Z,9.661527
2022-08-09T21:32:42.243Z,9.661526
2022-08-09T21:33:41.258Z,9.661440
2022-08-09T21:34:48.428Z,9.661455
2022-08-09T21:35:51.154Z,9.661469
2022-08-09T21:36:55.377Z,9.661531
2022-08-09T21:37:58.619Z,9.661458
2022-08-09T21:38:42.221Z,9.661685
2022-08-09T21:39:42.254Z,9.661735
2022-08-09T21:40:41.201Z,9.661675
2022-08-09T21:42:05.478Z,9.661546
2022-08-09T21:42:42.172Z,9.661515
2022-08-09T21:43:57.868Z,9.661527
2022-08-09T21:44:42.902Z,9.661703
2022-08-09T21:45:41.196Z,9.661604
2022-08-09T21:46:41.192Z,9.661593
2022-08-09T21:47:41.181Z,9.661600
2022-08-09T21:48:42.743Z,9.661585
2022-08-09T21:49:42.773Z,9.661539
2022-08-09T21:50:43.459Z,9.661572
2022-08-09T21:51:43.904Z,9.661619
2022-08-09T21:52:41.152Z,9.661635
2022-08-09T21:53:41.573Z,9.661617
2022-08-09T21:54:41.144Z,9.661654
2022-08-09T21:55:46.569Z,9.661639
2022-08-09T21:56:44.565Z,9.661610
2022-08-09T21:57:58.786Z,9.661599
2022-08-09T21:58:42.526Z,9.661699
2022-08-09T21:59:42.833Z,9.661703
2022-08-09T22:00:41.107Z,9.661735
2022-08-09T22:01:59.012Z,9.661602
2022-08-09T22:02:42.941Z,9.661608
2022-08-09T22:03:57.097Z,9.661558
2022-08-09T22:04:57.129Z,9.661558
2022-08-09T22:05:42.622Z,9.661585
2022-08-09T22:06:41.061Z,9.661593
2022-08-09T22:07:41.746Z,9.661673
2022-08-09T22:08:41.095Z,9.661613
2022-08-09T22:09:43.645Z,9.661578
2022-08-09T22:11:49.056Z,9.661509
2022-08-09T22:12:05.790Z,9.661554
2022-08-09T22:12:49.780Z,9.661580
2022-08-09T22:13:43.367Z,9.661511
2022-08-09T22:14:41.008Z,9.661536
2022-08-09T22:15:41.013Z,9.661543
2022-08-09T22:16:41.004Z,9.661505
2022-08-09T22:17:45.953Z,9.661522
2022-08-09T22:18:53.594Z,9.661512
2022-08-09T22:19:59.821Z,9.661560
2022-08-09T22:20:41.974Z,9.661531
2022-08-09T22:21:45.065Z,9.661532
2022-08-09T22:22:41.972Z,9.661525
2022-08-09T22:23:59.251Z,9.661509
2022-08-09T22:24:53.603Z,9.661513
2022-08-09T22:26:06.786Z,9.661436
2022-08-09T22:26:41.975Z,9.661445
2022-08-09T22:27:42.240Z,9.661492
2022-08-09T22:28:43.658Z,9.661540
2022-08-09T22:29:46.523Z,9.661604
2022-08-09T22:30:48.691Z,9.661582
2022-08-09T22:31:50.474Z,9.661531
2022-08-09T22:32:41.928Z,9.661530
2022-08-09T22:33:55.212Z,9.661486
2022-08-09T22:34:40.901Z,9.661482
2022-08-09T22:36:01.574Z,9.661475
2022-08-09T22:36:46.312Z,9.661506
2022-08-09T22:37:42.097Z,9.661570
2022-08-09T22:38:40.899Z,9.661556
2022-08-09T22:39:58.246Z,9.661548
2022-08-09T22:40:49.284Z,9.661542
2022-08-09T22:41:41.953Z,9.661545
2022-08-09T22:42:40.894Z,9.661518
2022-08-09T22:44:02.190Z,9.661515
2022-08-09T22:44:45.606Z,9.661501
2022-08-09T22:48:14.396Z,9.661528
2022-08-09T22:48:14.554Z,9.661546
2022-08-09T22:48:18.555Z,9.661555
2022-08-09T22:48:50.573Z,9.661512
2022-08-09T22:49:41.832Z,9.661495
2022-08-09T22:50:40.808Z,9.661497
2022-08-09T22:51:49.663Z,9.661590
2022-08-09T22:52:41.823Z,9.661528
2022-08-09T22:53:58.225Z,9.661550
2022-08-09T22:54:41.801Z,9.661592
2022-08-09T22:56:30.313Z,9.661504
2022-08-09T22:56:41.981Z,9.661566
2022-08-09T22:57:44.449Z,9.661503
2022-08-09T22:58:40.774Z,9.661498
2022-08-09T22:59:56.305Z,9.661475
2022-08-09T23:00:40.761Z,9.661413
2022-08-09T23:01:40.804Z,9.661441
2022-08-09T23:02:40.799Z,9.661448
2022-08-09T23:04:03.294Z,9.661515
2022-08-09T23:04:41.712Z,9.661477
2022-08-09T23:05:40.717Z,9.661480
2022-08-09T23:06:41.702Z,9.661498
2022-08-09T23:08:27.483Z,9.661635
2022-08-09T23:08:41.700Z,9.661618
2022-08-09T23:09:40.705Z,9.661525
2022-08-09T23:10:43.796Z,9.661531
2022-08-09T23:11:41.681Z,9.661493
2022-08-09T23:12:40.684Z,9.661462
2022-08-09T23:13:40.717Z,9.661436
2022-08-09T23:14:41.677Z,9.661427
2022-08-09T23:15:40.748Z,9.661621
2022-08-09T23:16:40.654Z,9.661707
2022-08-09T23:17:40.644Z,9.661704
2022-08-09T23:18:40.670Z,9.661454
2022-08-09T23:20:01.038Z,9.661394
2022-08-09T23:20:41.634Z,9.661536
2022-08-09T23:21:40.620Z,9.661512
2022-08-09T23:22:40.622Z,9.661400
2022-08-09T23:23:40.628Z,9.661360
2022-08-09T23:24:40.699Z,9.661358
2022-08-09T23:25:40.584Z,9.661436
2022-08-09T23:26:40.593Z,9.661579
2022-08-09T23:28:14.001Z,9.661397
2022-08-09T23:28:41.585Z,9.661452
2022-08-09T23:29:40.601Z,9.661418
2022-08-09T23:30:40.595Z,9.661472
2022-08-09T23:31:40.578Z,9.661457
2022-08-09T23:32:40.580Z,9.661498
2022-08-09T23:33:40.563Z,9.661486
2022-08-09T23:34:40.555Z,9.661456
2022-08-09T23:36:05.980Z,9.661505
2022-08-09T23:36:40.537Z,9.661468
2022-08-09T23:37:40.526Z,9.661392
2022-08-09T23:38:49.059Z,9.661354
2022-08-09T23:39:42.187Z,9.661385
2022-08-09T23:40:40.641Z,9.661523
2022-08-09T23:41:40.514Z,9.661470
2022-08-09T23:42:40.782Z,9.661392
2022-08-09T23:43:40.503Z,9.661398
2022-08-09T23:44:40.494Z,9.661357
2022-08-09T23:45:40.499Z,9.661393
2022-08-09T23:46:40.524Z,9.661428
2022-08-09T23:47:40.480Z,9.661454
2022-08-09T23:48:40.467Z,9.661441
2022-08-09T23:49:40.461Z,9.661422
2022-08-09T23:50:40.444Z,9.661491
2022-08-09T23:51:40.475Z,9.661464
2022-08-09T23:52:40.423Z,9.661473
2022-08-09T23:53:40.472Z,9.661429
2022-08-09T23:54:40.431Z,9.661424
2022-08-09T23:55:40.409Z,9.661453
2022-08-09T23:56:54.149Z,9.661478
2022-08-09T23:57:44.982Z,9.661500
2022-08-09T23:58:41.416Z,9.661511
2022-08-09T23:59:40.453Z,9.661489
